Portada
METAR-TAF:

METAR-TAF

Aeroports :

Reyes, Bolívia

latitud: 14-19S, longitud: 067-23W, altitud: 140 m

Observació

L'informe es va fer fa 9 hores i 18 minuts, a les 22:00 UTC
Vent calma
Temperatura 31°C
Humitat 63%
Pressió 1009 hPa
Visibilitat 10 km o més
Escasses núvols a una alçada de 2000 ft
Núvols disperses a una alçada de 20000 ft

METAR: SLRY 142200Z 00000KT 9999 FEW020 SCT200 31/23 Q1008 A2979 HR62 RWY NML

Hora: 03:18 (07:18 UTC)


TAF: manca

Observacions i pronòstics meteorològics de més de 4000 aeroports (METAR i TAF).

Les estacions disponibles són els punts grocs i vermells al mapa.

Posi el ratolí al punt desitjat per veure el nom de l'estació.

Feu clic per veure les observacions i els pronòstics meteorològics.

Per canviar el mapa: feu clic els botons verds amb una creu de color negre per apropar; al botó verd amb un guió per allunyar la imatge; o en les fletxes verdes per a mapes adjacents.


METAR-TAF: